sensor_id;sensor_type;location;lat;lon;timestamp;temperature;humidity
8465;DHT22;72380;52.680;13.606;2023-08-31T00:01:29;14.80;99.90
8465;DHT22;72380;52.680;13.606;2023-08-31T00:03:56;14.80;99.90
8465;DHT22;72380;52.680;13.606;2023-08-31T00:06:22;14.80;99.90
8465;DHT22;72380;52.680;13.606;2023-08-31T00:08:49;14.80;99.90
8465;DHT22;72380;52.680;13.606;2023-08-31T00:11:15;14.80;99.90
8465;DHT22;72380;52.680;13.606;2023-08-31T00:13:43;14.80;99.90
8465;DHT22;72380;52.680;13.606;2023-08-31T00:16:12;14.90;99.90
8465;DHT22;72380;52.680;13.606;2023-08-31T00:18:39;14.90;99.90
8465;DHT22;72380;52.680;13.606;2023-08-31T00:21:05;14.80;99.90
8465;DHT22;72380;52.680;13.606;2023-08-31T00:23:32;14.90;99.90
8465;DHT22;72380;52.680;13.606;2023-08-31T00:25:58;14.80;99.90
8465;DHT22;72380;52.680;13.606;2023-08-31T00:28:25;14.90;99.90
8465;DHT22;72380;52.680;13.606;2023-08-31T00:30:54;14.80;99.90
8465;DHT22;72380;52.680;13.606;2023-08-31T00:33:20;14.90;99.90
8465;DHT22;72380;52.680;13.606;2023-08-31T00:35:47;14.90;99.90
8465;DHT22;72380;52.680;13.606;2023-08-31T00:38:14;14.90;99.90
8465;DHT22;72380;52.680;13.606;2023-08-31T00:40:40;14.90;99.90
8465;DHT22;72380;52.680;13.606;2023-08-31T00:43:08;15.00;99.90
8465;DHT22;72380;52.680;13.606;2023-08-31T00:45:34;14.90;99.90
8465;DHT22;72380;52.680;13.606;2023-08-31T00:48:03;14.90;99.90
8465;DHT22;72380;52.680;13.606;2023-08-31T00:50:30;14.90;99.90
8465;DHT22;72380;52.680;13.606;2023-08-31T00:52:57;14.90;99.90
8465;DHT22;72380;52.680;13.606;2023-08-31T00:55:24;14.80;99.90
8465;DHT22;72380;52.680;13.606;2023-08-31T00:57:50;14.90;99.90
8465;DHT22;72380;52.680;13.606;2023-08-31T01:00:17;14.90;99.90
8465;DHT22;72380;52.680;13.606;2023-08-31T01:03:04;14.80;99.90
8465;DHT22;72380;52.680;13.606;2023-08-31T01:05:40;14.80;99.90
8465;DHT22;72380;52.680;13.606;2023-08-31T01:08:19;14.80;99.90
8465;DHT22;72380;52.680;13.606;2023-08-31T01:10:55;14.80;99.90
8465;DHT22;72380;52.680;13.606;2023-08-31T01:13:25;14.80;99.90
8465;DHT22;72380;52.680;13.606;2023-08-31T01:16:00;14.70;99.90
8465;DHT22;72380;52.680;13.606;2023-08-31T01:18:32;14.80;99.90
8465;DHT22;72380;52.680;13.606;2023-08-31T01:21:05;14.80;99.90
8465;DHT22;72380;52.680;13.606;2023-08-31T01:23:42;14.80;99.90
8465;DHT22;72380;52.680;13.606;2023-08-31T01:26:09;14.80;99.90
8465;DHT22;72380;52.680;13.606;2023-08-31T01:28:36;14.80;99.90
8465;DHT22;72380;52.680;13.606;2023-08-31T01:31:04;14.80;99.90
8465;DHT22;72380;52.680;13.606;2023-08-31T01:33:31;14.80;99.90
8465;DHT22;72380;52.680;13.606;2023-08-31T01:36:00;14.80;99.90
8465;DHT22;72380;52.680;13.606;2023-08-31T01:38:30;14.80;99.90
8465;DHT22;72380;52.680;13.606;2023-08-31T01:41:03;14.80;99.90
8465;DHT22;72380;52.680;13.606;2023-08-31T01:43:32;14.90;99.90
8465;DHT22;72380;52.680;13.606;2023-08-31T01:46:00;14.90;99.90
8465;DHT22;72380;52.680;13.606;2023-08-31T01:48:26;14.90;99.90
8465;DHT22;72380;52.680;13.606;2023-08-31T01:50:53;14.90;99.90
8465;DHT22;72380;52.680;13.606;2023-08-31T01:53:19;14.90;99.90
8465;DHT22;72380;52.680;13.606;2023-08-31T01:55:46;14.90;99.90
8465;DHT22;72380;52.680;13.606;2023-08-31T01:58:14;14.90;99.90
8465;DHT22;72380;52.680;13.606;2023-08-31T02:00:40;14.90;99.90
8465;DHT22;72380;52.680;13.606;2023-08-31T02:03:07;14.90;99.90
8465;DHT22;72380;52.680;13.606;2023-08-31T02:05:33;14.60;99.90
8465;DHT22;72380;52.680;13.606;2023-08-31T02:08:00;14.90;99.90
8465;DHT22;72380;52.680;13.606;2023-08-31T02:10:26;15.00;99.90
8465;DHT22;72380;52.680;13.606;2023-08-31T02:12:55;15.00;99.90
8465;DHT22;72380;52.680;13.606;2023-08-31T02:15:22;15.00;99.90
8465;DHT22;72380;52.680;13.606;2023-08-31T02:17:49;15.00;99.90
8465;DHT22;72380;52.680;13.606;2023-08-31T02:20:16;14.90;99.90
8465;DHT22;72380;52.680;13.606;2023-08-31T02:22:42;14.60;99.90
8465;DHT22;72380;52.680;13.606;2023-08-31T02:25:09;14.90;99.90
8465;DHT22;72380;52.680;13.606;2023-08-31T02:27:35;14.90;99.90
8465;DHT22;72380;52.680;13.606;2023-08-31T02:30:02;14.90;99.90
8465;DHT22;72380;52.680;13.606;2023-08-31T02:32:31;14.90;99.90
8465;DHT22;72380;52.680;13.606;2023-08-31T02:34:58;14.90;99.90
8465;DHT22;72380;52.680;13.606;2023-08-31T02:37:25;14.90;99.90
8465;DHT22;72380;52.680;13.606;2023-08-31T02:39:51;14.90;99.90
8465;DHT22;72380;52.680;13.606;2023-08-31T02:42:18;14.80;99.90
8465;DHT22;72380;52.680;13.606;2023-08-31T02:44:44;14.80;99.90
8465;DHT22;72380;52.680;13.606;2023-08-31T02:47:11;14.70;99.90
8465;DHT22;72380;52.680;13.606;2023-08-31T02:49:39;14.70;99.90
8465;DHT22;72380;52.680;13.606;2023-08-31T02:52:05;14.70;99.90
8465;DHT22;72380;52.680;13.606;2023-08-31T02:54:32;14.70;99.90
8465;DHT22;72380;52.680;13.606;2023-08-31T02:56:58;14.50;99.90
8465;DHT22;72380;52.680;13.606;2023-08-31T02:59:25;14.60;99.90
8465;DHT22;72380;52.680;13.606;2023-08-31T03:01:52;14.60;99.90
8465;DHT22;72380;52.680;13.606;2023-08-31T03:04:18;14.50;99.90
8465;DHT22;72380;52.680;13.606;2023-08-31T03:06:46;14.50;99.90
8465;DHT22;72380;52.680;13.606;2023-08-31T03:09:13;14.50;99.90
8465;DHT22;72380;52.680;13.606;2023-08-31T03:11:39;14.50;99.90
8465;DHT22;72380;52.680;13.606;2023-08-31T03:14:06;14.50;99.90
8465;DHT22;72380;52.680;13.606;2023-08-31T03:16:34;14.50;99.90
8465;DHT22;72380;52.680;13.606;2023-08-31T03:19:01;14.50;99.90
8465;DHT22;72380;52.680;13.606;2023-08-31T03:21:27;14.10;99.90
8465;DHT22;72380;52.680;13.606;2023-08-31T03:23:55;14.20;99.90
8465;DHT22;72380;52.680;13.606;2023-08-31T03:26:22;14.30;99.90
8465;DHT22;72380;52.680;13.606;2023-08-31T03:28:48;14.20;99.90
8465;DHT22;72380;52.680;13.606;2023-08-31T03:31:15;14.30;99.90
8465;DHT22;72380;52.680;13.606;2023-08-31T03:33:41;14.30;99.90
8465;DHT22;72380;52.680;13.606;2023-08-31T03:36:08;14.30;99.90
8465;DHT22;72380;52.680;13.606;2023-08-31T03:38:35;14.20;99.90
8465;DHT22;72380;52.680;13.606;2023-08-31T03:41:04;14.20;99.90
8465;DHT22;72380;52.680;13.606;2023-08-31T03:43:30;14.20;99.90
8465;DHT22;72380;52.680;13.606;2023-08-31T03:45:57;14.20;99.90
8465;DHT22;72380;52.680;13.606;2023-08-31T03:48:24;14.10;99.90
8465;DHT22;72380;52.680;13.606;2023-08-31T03:50:51;14.10;99.90
8465;DHT22;72380;52.680;13.606;2023-08-31T03:53:18;14.10;99.90
8465;DHT22;72380;52.680;13.606;2023-08-31T03:55:44;14.00;99.90
8465;DHT22;72380;52.680;13.606;2023-08-31T03:58:12;14.00;99.90
8465;DHT22;72380;52.680;13.606;2023-08-31T04:00:39;14.10;99.90
8465;DHT22;72380;52.680;13.606;2023-08-31T04:03:05;13.80;99.90
8465;DHT22;72380;52.680;13.606;2023-08-31T04:05:32;13.80;99.90
8465;DHT22;72380;52.680;13.606;2023-08-31T04:08:00;13.80;99.90
8465;DHT22;72380;52.680;13.606;2023-08-31T04:10:27;13.80;99.90
8465;DHT22;72380;52.680;13.606;2023-08-31T04:12:55;13.70;99.90
8465;DHT22;72380;52.680;13.606;2023-08-31T04:15:22;13.80;99.90
8465;DHT22;72380;52.680;13.606;2023-08-31T04:17:49;13.70;99.90
8465;DHT22;72380;52.680;13.606;2023-08-31T04:20:16;13.70;99.90
8465;DHT22;72380;52.680;13.606;2023-08-31T04:25:09;13.60;99.90
8465;DHT22;72380;52.680;13.606;2023-08-31T04:27:36;13.60;99.90
8465;DHT22;72380;52.680;13.606;2023-08-31T04:30:05;13.60;99.90
8465;DHT22;72380;52.680;13.606;2023-08-31T04:32:34;13.60;99.90
8465;DHT22;72380;52.680;13.606;2023-08-31T04:35:01;13.60;99.90
8465;DHT22;72380;52.680;13.606;2023-08-31T04:37:28;13.60;99.90
8465;DHT22;72380;52.680;13.606;2023-08-31T04:39:55;13.50;99.90
8465;DHT22;72380;52.680;13.606;2023-08-31T04:42:21;13.80;99.90
8465;DHT22;72380;52.680;13.606;2023-08-31T04:44:48;13.50;99.90
8465;DHT22;72380;52.680;13.606;2023-08-31T04:47:14;13.60;99.90
8465;DHT22;72380;52.680;13.606;2023-08-31T04:49:42;13.70;99.90
8465;DHT22;72380;52.680;13.606;2023-08-31T04:52:09;13.60;99.90
8465;DHT22;72380;52.680;13.606;2023-08-31T04:54:35;13.60;99.90
8465;DHT22;72380;52.680;13.606;2023-08-31T04:57:02;13.60;99.90
8465;DHT22;72380;52.680;13.606;2023-08-31T04:59:28;13.60;99.90
8465;DHT22;72380;52.680;13.606;2023-08-31T05:01:55;13.60;99.90
8465;DHT22;72380;52.680;13.606;2023-08-31T05:04:21;13.60;99.90
8465;DHT22;72380;52.680;13.606;2023-08-31T05:06:50;13.70;99.90
8465;DHT22;72380;52.680;13.606;2023-08-31T05:09:16;13.60;99.90
8465;DHT22;72380;52.680;13.606;2023-08-31T05:11:44;13.60;99.90
8465;DHT22;72380;52.680;13.606;2023-08-31T05:14:10;13.60;99.90
8465;DHT22;72380;52.680;13.606;2023-08-31T05:16:37;13.60;99.90
8465;DHT22;72380;52.680;13.606;2023-08-31T05:19:04;13.60;99.90
8465;DHT22;72380;52.680;13.606;2023-08-31T05:21:30;13.80;99.90
8465;DHT22;72380;52.680;13.606;2023-08-31T05:23:58;13.70;99.90
8465;DHT22;72380;52.680;13.606;2023-08-31T05:26:24;13.70;99.90
8465;DHT22;72380;52.680;13.606;2023-08-31T05:28:51;13.70;99.90
8465;DHT22;72380;52.680;13.606;2023-08-31T05:31:17;13.70;99.90
8465;DHT22;72380;52.680;13.606;2023-08-31T05:33:44;13.60;99.90
8465;DHT22;72380;52.680;13.606;2023-08-31T05:36:10;13.70;99.90
8465;DHT22;72380;52.680;13.606;2023-08-31T05:38:37;13.70;99.90
8465;DHT22;72380;52.680;13.606;2023-08-31T05:41:06;13.70;99.90
8465;DHT22;72380;52.680;13.606;2023-08-31T05:43:33;13.70;99.90
8465;DHT22;72380;52.680;13.606;2023-08-31T05:46:00;13.70;99.90
8465;DHT22;72380;52.680;13.606;2023-08-31T05:48:27;13.70;99.90
8465;DHT22;72380;52.680;13.606;2023-08-31T05:50:53;13.80;99.90
8465;DHT22;72380;52.680;13.606;2023-08-31T05:53:20;13.80;99.90
8465;DHT22;72380;52.680;13.606;2023-08-31T05:55:46;13.80;99.90
8465;DHT22;72380;52.680;13.606;2023-08-31T05:58:14;13.80;99.90
8465;DHT22;72380;52.680;13.606;2023-08-31T06:00:41;13.80;99.90
8465;DHT22;72380;52.680;13.606;2023-08-31T06:03:07;13.80;99.90
8465;DHT22;72380;52.680;13.606;2023-08-31T06:05:35;13.80;99.90
8465;DHT22;72380;52.680;13.606;2023-08-31T06:08:02;13.80;99.90
8465;DHT22;72380;52.680;13.606;2023-08-31T06:10:29;13.80;99.90
8465;DHT22;72380;52.680;13.606;2023-08-31T06:12:55;13.80;99.90
8465;DHT22;72380;52.680;13.606;2023-08-31T06:15:23;13.90;99.90
8465;DHT22;72380;52.680;13.606;2023-08-31T06:17:50;14.00;99.90
8465;DHT22;72380;52.680;13.606;2023-08-31T06:20:16;13.80;99.90
8465;DHT22;72380;52.680;13.606;2023-08-31T06:22:43;13.90;99.90
8465;DHT22;72380;52.680;13.606;2023-08-31T06:25:09;13.60;99.90
8465;DHT22;72380;52.680;13.606;2023-08-31T06:27:36;13.90;99.90
8465;DHT22;72380;52.680;13.606;2023-08-31T06:30:03;13.90;99.90
8465;DHT22;72380;52.680;13.606;2023-08-31T06:32:34;13.90;99.90
8465;DHT22;72380;52.680;13.606;2023-08-31T06:35:00;13.90;99.90
8465;DHT22;72380;52.680;13.606;2023-08-31T06:37:27;14.00;99.90
8465;DHT22;72380;52.680;13.606;2023-08-31T06:39:53;14.00;99.90
8465;DHT22;72380;52.680;13.606;2023-08-31T06:42:20;14.00;99.90
8465;DHT22;72380;52.680;13.606;2023-08-31T06:44:46;14.00;99.90
8465;DHT22;72380;52.680;13.606;2023-08-31T06:47:13;14.00;99.90
8465;DHT22;72380;52.680;13.606;2023-08-31T06:49:44;14.10;99.90
8465;DHT22;72380;52.680;13.606;2023-08-31T06:52:10;14.20;99.90
8465;DHT22;72380;52.680;13.606;2023-08-31T06:54:37;14.20;99.90
8465;DHT22;72380;52.680;13.606;2023-08-31T06:57:03;14.20;99.90
8465;DHT22;72380;52.680;13.606;2023-08-31T06:59:30;14.20;99.90
8465;DHT22;72380;52.680;13.606;2023-08-31T07:01:57;14.20;99.90
8465;DHT22;72380;52.680;13.606;2023-08-31T07:04:23;14.10;99.90
8465;DHT22;72380;52.680;13.606;2023-08-31T07:06:51;14.20;99.90
8465;DHT22;72380;52.680;13.606;2023-08-31T07:09:17;14.30;99.90
8465;DHT22;72380;52.680;13.606;2023-08-31T07:11:44;14.30;99.90
8465;DHT22;72380;52.680;13.606;2023-08-31T07:14:10;14.30;99.90
8465;DHT22;72380;52.680;13.606;2023-08-31T07:16:37;14.30;99.90
8465;DHT22;72380;52.680;13.606;2023-08-31T07:19:03;14.30;99.90
8465;DHT22;72380;52.680;13.606;2023-08-31T07:21:30;14.30;99.90
8465;DHT22;72380;52.680;13.606;2023-08-31T07:23:58;14.30;99.90
8465;DHT22;72380;52.680;13.606;2023-08-31T07:26:25;14.40;99.90
8465;DHT22;72380;52.680;13.606;2023-08-31T07:28:51;14.40;99.90
8465;DHT22;72380;52.680;13.606;2023-08-31T07:31:18;14.40;99.90
8465;DHT22;72380;52.680;13.606;2023-08-31T07:33:45;14.50;99.90
8465;DHT22;72380;52.680;13.606;2023-08-31T07:36:11;14.50;99.90
8465;DHT22;72380;52.680;13.606;2023-08-31T07:38:38;14.60;99.90
8465;DHT22;72380;52.680;13.606;2023-08-31T07:41:06;14.60;99.90
8465;DHT22;72380;52.680;13.606;2023-08-31T07:43:32;14.60;99.90
8465;DHT22;72380;52.680;13.606;2023-08-31T07:45:59;14.60;99.90
8465;DHT22;72380;52.680;13.606;2023-08-31T07:48:25;14.60;99.90
8465;DHT22;72380;52.680;13.606;2023-08-31T07:50:52;14.70;99.90
8465;DHT22;72380;52.680;13.606;2023-08-31T07:53:18;14.70;99.90
8465;DHT22;72380;52.680;13.606;2023-08-31T07:55:52;14.70;99.90
8465;DHT22;72380;52.680;13.606;2023-08-31T07:58:21;14.80;99.90
8465;DHT22;72380;52.680;13.606;2023-08-31T08:00:48;14.80;99.90
8465;DHT22;72380;52.680;13.606;2023-08-31T08:03:15;14.80;99.90
8465;DHT22;72380;52.680;13.606;2023-08-31T08:05:41;14.80;99.90
8465;DHT22;72380;52.680;13.606;2023-08-31T08:08:08;14.90;99.90
8465;DHT22;72380;52.680;13.606;2023-08-31T08:10:34;14.90;99.90
8465;DHT22;72380;52.680;13.606;2023-08-31T08:13:01;15.00;99.90
8465;DHT22;72380;52.680;13.606;2023-08-31T08:15:29;15.00;98.60
8465;DHT22;72380;52.680;13.606;2023-08-31T08:17:56;15.10;92.10
8465;DHT22;72380;52.680;13.606;2023-08-31T08:20:23;15.10;89.80
8465;DHT22;72380;52.680;13.606;2023-08-31T08:22:49;15.20;88.60
8465;DHT22;72380;52.680;13.606;2023-08-31T08:25:18;15.20;90.60
8465;DHT22;72380;52.680;13.606;2023-08-31T08:27:44;15.30;93.80
8465;DHT22;72380;52.680;13.606;2023-08-31T08:30:11;15.30;96.50
8465;DHT22;72380;52.680;13.606;2023-08-31T08:32:39;15.40;94.20
8465;DHT22;72380;52.680;13.606;2023-08-31T08:35:06;15.40;91.70
8465;DHT22;72380;52.680;13.606;2023-08-31T08:37:32;15.40;88.90
8465;DHT22;72380;52.680;13.606;2023-08-31T08:39:59;15.10;85.60
8465;DHT22;72380;52.680;13.606;2023-08-31T08:42:29;15.30;86.80
8465;DHT22;72380;52.680;13.606;2023-08-31T08:44:56;15.30;79.30
8465;DHT22;72380;52.680;13.606;2023-08-31T08:47:24;15.30;79.60
8465;DHT22;72380;52.680;13.606;2023-08-31T08:49:53;15.20;67.20
8465;DHT22;72380;52.680;13.606;2023-08-31T08:52:20;15.20;69.00
8465;DHT22;72380;52.680;13.606;2023-08-31T08:54:47;15.20;65.80
8465;DHT22;72380;52.680;13.606;2023-08-31T08:57:14;15.20;67.00
8465;DHT22;72380;52.680;13.606;2023-08-31T08:59:41;15.10;51.80
8465;DHT22;72380;52.680;13.606;2023-08-31T09:02:09;15.20;50.40
8465;DHT22;72380;52.680;13.606;2023-08-31T09:07:05;15.30;50.00
8465;DHT22;72380;52.680;13.606;2023-08-31T09:09:31;15.30;50.00
8465;DHT22;72380;52.680;13.606;2023-08-31T09:12:06;15.30;47.70
8465;DHT22;72380;52.680;13.606;2023-08-31T09:14:33;15.40;38.70
8465;DHT22;72380;52.680;13.606;2023-08-31T09:19:27;15.60;28.30
8465;DHT22;72380;52.680;13.606;2023-08-31T09:21:56;15.70;21.60
8465;DHT22;72380;52.680;13.606;2023-08-31T09:24:24;15.70;16.10
8465;DHT22;72380;52.680;13.606;2023-08-31T09:26:53;15.70;17.00
8465;DHT22;72380;52.680;13.606;2023-08-31T09:29:20;15.80;29.70
8465;DHT22;72380;52.680;13.606;2023-08-31T09:31:46;15.80;19.40
8465;DHT22;72380;52.680;13.606;2023-08-31T09:34:14;15.80;20.80
8465;DHT22;72380;52.680;13.606;2023-08-31T09:36:41;15.80;17.90
8465;DHT22;72380;52.680;13.606;2023-08-31T09:39:08;15.80;19.50
8465;DHT22;72380;52.680;13.606;2023-08-31T09:41:53;15.80;17.80
8465;DHT22;72380;52.680;13.606;2023-08-31T09:44:21;15.80;21.00
8465;DHT22;72380;52.680;13.606;2023-08-31T09:46:48;15.80;6.50
8465;DHT22;72380;52.680;13.606;2023-08-31T09:49:18;16.00;16.00
8465;DHT22;72380;52.680;13.606;2023-08-31T09:51:47;15.90;16.80
8465;DHT22;72380;52.680;13.606;2023-08-31T09:54:15;16.10;3.10
8465;DHT22;72380;52.680;13.606;2023-08-31T09:56:44;16.10;1.00
8465;DHT22;72380;52.680;13.606;2023-08-31T09:59:12;16.20;1.00
8465;DHT22;72380;52.680;13.606;2023-08-31T10:01:39;16.30;1.00
8465;DHT22;72380;52.680;13.606;2023-08-31T10:04:07;16.40;1.00
8465;DHT22;72380;52.680;13.606;2023-08-31T10:06:34;16.50;1.00
8465;DHT22;72380;52.680;13.606;2023-08-31T10:09:01;16.60;1.00
8465;DHT22;72380;52.680;13.606;2023-08-31T10:11:28;16.70;1.00
8465;DHT22;72380;52.680;13.606;2023-08-31T10:13:57;16.80;1.00
8465;DHT22;72380;52.680;13.606;2023-08-31T10:16:25;16.80;1.00
8465;DHT22;72380;52.680;13.606;2023-08-31T10:18:52;16.80;1.00
8465;DHT22;72380;52.680;13.606;2023-08-31T10:21:19;16.80;1.00
8465;DHT22;72380;52.680;13.606;2023-08-31T10:23:46;16.80;1.00
8465;DHT22;72380;52.680;13.606;2023-08-31T10:26:23;16.90;1.00
8465;DHT22;72380;52.680;13.606;2023-08-31T10:28:49;16.90;1.00
8465;DHT22;72380;52.680;13.606;2023-08-31T10:31:18;17.10;1.00
8465;DHT22;72380;52.680;13.606;2023-08-31T10:33:47;17.40;1.00
8465;DHT22;72380;52.680;13.606;2023-08-31T10:36:20;17.50;1.00
8465;DHT22;72380;52.680;13.606;2023-08-31T10:39:00;17.50;99.90
8465;DHT22;72380;52.680;13.606;2023-08-31T10:41:33;17.30;1.00
8465;DHT22;72380;52.680;13.606;2023-08-31T10:44:00;17.60;1.00
8465;DHT22;72380;52.680;13.606;2023-08-31T10:46:30;17.90;99.90
8465;DHT22;72380;52.680;13.606;2023-08-31T10:48:57;17.90;99.90
8465;DHT22;72380;52.680;13.606;2023-08-31T10:51:29;18.10;99.90
8465;DHT22;72380;52.680;13.606;2023-08-31T10:54:07;18.20;99.90
8465;DHT22;72380;52.680;13.606;2023-08-31T10:56:54;18.20;99.90
8465;DHT22;72380;52.680;13.606;2023-08-31T10:59:21;18.20;99.90
8465;DHT22;72380;52.680;13.606;2023-08-31T11:01:54;18.20;99.90
8465;DHT22;72380;52.680;13.606;2023-08-31T11:04:22;18.10;99.90
8465;DHT22;72380;52.680;13.606;2023-08-31T11:06:49;18.00;1.00
8465;DHT22;72380;52.680;13.606;2023-08-31T11:09:20;17.80;1.00
8465;DHT22;72380;52.680;13.606;2023-08-31T11:11:47;17.60;99.90
8465;DHT22;72380;52.680;13.606;2023-08-31T11:14:14;17.40;99.90
8465;DHT22;72380;52.680;13.606;2023-08-31T11:16:43;17.30;99.90
8465;DHT22;72380;52.680;13.606;2023-08-31T11:19:11;17.20;1.00
8465;DHT22;72380;52.680;13.606;2023-08-31T11:21:37;17.10;42.00
8465;DHT22;72380;52.680;13.606;2023-08-31T11:24:04;17.10;99.90
8465;DHT22;72380;52.680;13.606;2023-08-31T11:26:32;17.10;1.00
8465;DHT22;72380;52.680;13.606;2023-08-31T11:28:59;17.10;1.00
8465;DHT22;72380;52.680;13.606;2023-08-31T11:31:26;17.10;1.00
8465;DHT22;72380;52.680;13.606;2023-08-31T11:33:54;17.10;1.00
8465;DHT22;72380;52.680;13.606;2023-08-31T11:36:22;17.10;1.00
8465;DHT22;72380;52.680;13.606;2023-08-31T11:38:50;17.10;1.00
8465;DHT22;72380;52.680;13.606;2023-08-31T11:41:17;17.20;1.00
8465;DHT22;72380;52.680;13.606;2023-08-31T11:43:43;17.20;1.00
8465;DHT22;72380;52.680;13.606;2023-08-31T11:46:11;17.30;1.00
8465;DHT22;72380;52.680;13.606;2023-08-31T11:48:37;17.60;1.00
8465;DHT22;72380;52.680;13.606;2023-08-31T11:51:04;17.80;1.00
8465;DHT22;72380;52.680;13.606;2023-08-31T11:53:32;18.20;1.00
8465;DHT22;72380;52.680;13.606;2023-08-31T11:56:01;18.80;1.00
8465;DHT22;72380;52.680;13.606;2023-08-31T11:58:28;18.80;1.00
8465;DHT22;72380;52.680;13.606;2023-08-31T12:00:56;19.00;99.90
8465;DHT22;72380;52.680;13.606;2023-08-31T12:03:22;19.20;1.00
8465;DHT22;72380;52.680;13.606;2023-08-31T12:05:51;19.30;99.90
8465;DHT22;72380;52.680;13.606;2023-08-31T12:08:24;19.60;99.90
8465;DHT22;72380;52.680;13.606;2023-08-31T12:10:52;19.60;99.90
8465;DHT22;72380;52.680;13.606;2023-08-31T12:13:19;19.70;1.00
8465;DHT22;72380;52.680;13.606;2023-08-31T12:15:46;19.70;1.00
8465;DHT22;72380;52.680;13.606;2023-08-31T12:18:13;20.00;1.00
8465;DHT22;72380;52.680;13.606;2023-08-31T12:20:44;20.20;1.00
8465;DHT22;72380;52.680;13.606;2023-08-31T12:23:11;20.20;1.00
8465;DHT22;72380;52.680;13.606;2023-08-31T12:25:45;20.30;1.00
8465;DHT22;72380;52.680;13.606;2023-08-31T12:28:13;20.20;1.00
8465;DHT22;72380;52.680;13.606;2023-08-31T12:30:42;20.10;1.00
8465;DHT22;72380;52.680;13.606;2023-08-31T12:35:37;20.10;1.00
8465;DHT22;72380;52.680;13.606;2023-08-31T12:38:04;20.00;1.00
8465;DHT22;72380;52.680;13.606;2023-08-31T12:40:30;19.90;1.00
8465;DHT22;72380;52.680;13.606;2023-08-31T12:42:57;19.70;99.90
8465;DHT22;72380;52.680;13.606;2023-08-31T12:45:25;19.40;1.00
8465;DHT22;72380;52.680;13.606;2023-08-31T12:47:51;19.20;99.90
8465;DHT22;72380;52.680;13.606;2023-08-31T12:50:18;18.50;1.00
8465;DHT22;72380;52.680;13.606;2023-08-31T12:52:45;18.70;1.00
8465;DHT22;72380;52.680;13.606;2023-08-31T12:55:12;18.70;99.90
8465;DHT22;72380;52.680;13.606;2023-08-31T12:57:39;18.80;99.90
8465;DHT22;72380;52.680;13.606;2023-08-31T13:00:07;19.40;99.90
8465;DHT22;72380;52.680;13.606;2023-08-31T13:02:38;19.30;1.00
8465;DHT22;72380;52.680;13.606;2023-08-31T13:05:05;20.00;99.90
8465;DHT22;72380;52.680;13.606;2023-08-31T13:07:32;20.20;99.90
8465;DHT22;72380;52.680;13.606;2023-08-31T13:10:00;20.60;1.00
8465;DHT22;72380;52.680;13.606;2023-08-31T13:12:26;20.80;99.90
8465;DHT22;72380;52.680;13.606;2023-08-31T13:14:53;21.00;99.90
8465;DHT22;72380;52.680;13.606;2023-08-31T13:17:19;21.00;1.00
8465;DHT22;72380;52.680;13.606;2023-08-31T13:19:47;20.90;1.00
8465;DHT22;72380;52.680;13.606;2023-08-31T13:22:14;20.80;1.00
8465;DHT22;72380;52.680;13.606;2023-08-31T13:24:41;20.80;1.00
8465;DHT22;72380;52.680;13.606;2023-08-31T13:27:08;20.50;93.30
8465;DHT22;72380;52.680;13.606;2023-08-31T13:29:34;20.40;1.00
8465;DHT22;72380;52.680;13.606;2023-08-31T13:32:01;20.20;1.00
8465;DHT22;72380;52.680;13.606;2023-08-31T13:34:28;20.10;1.00
8465;DHT22;72380;52.680;13.606;2023-08-31T13:36:56;19.90;99.90
8465;DHT22;72380;52.680;13.606;2023-08-31T13:39:22;19.70;1.00
8465;DHT22;72380;52.680;13.606;2023-08-31T13:41:50;19.50;99.90
8465;DHT22;72380;52.680;13.606;2023-08-31T13:44:17;19.30;1.00
8465;DHT22;72380;52.680;13.606;2023-08-31T13:46:43;19.20;1.00
8465;DHT22;72380;52.680;13.606;2023-08-31T13:51:37;18.10;1.00
8465;DHT22;72380;52.680;13.606;2023-08-31T13:54:06;17.70;1.00
8465;DHT22;72380;52.680;13.606;2023-08-31T13:59:00;17.30;83.20
8465;DHT22;72380;52.680;13.606;2023-08-31T14:01:27;17.40;97.10
8465;DHT22;72380;52.680;13.606;2023-08-31T14:03:53;17.30;98.20
8465;DHT22;72380;52.680;13.606;2023-08-31T14:06:20;17.40;99.90
8465;DHT22;72380;52.680;13.606;2023-08-31T14:08:46;17.50;99.90
8465;DHT22;72380;52.680;13.606;2023-08-31T14:11:14;17.50;99.90
8465;DHT22;72380;52.680;13.606;2023-08-31T14:13:43;17.50;99.90
8465;DHT22;72380;52.680;13.606;2023-08-31T14:18:38;17.50;99.90
8465;DHT22;72380;52.680;13.606;2023-08-31T14:21:06;17.50;99.90
8465;DHT22;72380;52.680;13.606;2023-08-31T14:26:02;17.40;99.90
8465;DHT22;72380;52.680;13.606;2023-08-31T14:28:30;17.30;99.90
8465;DHT22;72380;52.680;13.606;2023-08-31T14:30:57;17.20;99.90
8465;DHT22;72380;52.680;13.606;2023-08-31T14:35:50;17.00;58.00
8465;DHT22;72380;52.680;13.606;2023-08-31T14:38:21;16.80;23.50
8465;DHT22;72380;52.680;13.606;2023-08-31T14:45:43;16.20;1.00
8465;DHT22;72380;52.680;13.606;2023-08-31T14:48:09;15.70;34.90
8465;DHT22;72380;52.680;13.606;2023-08-31T14:50:36;15.20;1.00
8465;DHT22;72380;52.680;13.606;2023-08-31T14:53:05;15.20;1.00
8465;DHT22;72380;52.680;13.606;2023-08-31T14:55:32;14.70;26.10
8465;DHT22;72380;52.680;13.606;2023-08-31T14:57:59;13.80;89.40
8465;DHT22;72380;52.680;13.606;2023-08-31T15:00:25;13.50;95.80
8465;DHT22;72380;52.680;13.606;2023-08-31T15:02:54;13.30;99.90
8465;DHT22;72380;52.680;13.606;2023-08-31T15:05:20;13.20;99.90
8465;DHT22;72380;52.680;13.606;2023-08-31T15:07:49;13.20;99.90
8465;DHT22;72380;52.680;13.606;2023-08-31T15:10:16;13.10;99.90
8465;DHT22;72380;52.680;13.606;2023-08-31T15:12:43;13.00;99.90
8465;DHT22;72380;52.680;13.606;2023-08-31T15:15:10;12.90;99.90
8465;DHT22;72380;52.680;13.606;2023-08-31T15:17:36;12.90;99.90
8465;DHT22;72380;52.680;13.606;2023-08-31T15:20:06;12.90;99.90
8465;DHT22;72380;52.680;13.606;2023-08-31T15:22:34;12.80;99.90
8465;DHT22;72380;52.680;13.606;2023-08-31T15:25:00;13.00;99.90
8465;DHT22;72380;52.680;13.606;2023-08-31T15:27:27;13.00;99.90
8465;DHT22;72380;52.680;13.606;2023-08-31T15:32:21;13.20;99.90
8465;DHT22;72380;52.680;13.606;2023-08-31T15:37:17;13.20;99.90
8465;DHT22;72380;52.680;13.606;2023-08-31T15:39:43;13.30;99.90
8465;DHT22;72380;52.680;13.606;2023-08-31T15:42:10;13.60;99.90
8465;DHT22;72380;52.680;13.606;2023-08-31T15:44:40;13.50;99.90
8465;DHT22;72380;52.680;13.606;2023-08-31T15:47:06;13.30;99.90
8465;DHT22;72380;52.680;13.606;2023-08-31T15:49:33;12.70;99.90
8465;DHT22;72380;52.680;13.606;2023-08-31T15:52:00;12.50;99.90
8465;DHT22;72380;52.680;13.606;2023-08-31T15:54:29;13.20;99.90
8465;DHT22;72380;52.680;13.606;2023-08-31T15:56:56;13.00;99.90
8465;DHT22;72380;52.680;13.606;2023-08-31T15:59:22;13.40;99.90
8465;DHT22;72380;52.680;13.606;2023-08-31T16:01:49;13.10;99.90
8465;DHT22;72380;52.680;13.606;2023-08-31T16:04:16;13.10;99.90
8465;DHT22;72380;52.680;13.606;2023-08-31T16:06:42;13.20;99.90